createdAt,value
2018-01-16T00:00:08.650Z,93418.64
2018-01-16T00:02:36.406Z,93417.64
2018-01-16T00:05:04.152Z,93416.05
2018-01-16T00:07:31.843Z,93415.48
2018-01-16T00:09:59.638Z,93416.13
2018-01-16T00:12:27.370Z,93415.56
2018-01-16T00:14:55.053Z,93411.98
2018-01-16T00:17:22.813Z,93416.36
2018-01-16T00:19:50.526Z,93421.84
2018-01-16T00:22:29.970Z,93415.89
2018-01-16T00:24:57.672Z,93423.77
2018-01-16T00:27:25.422Z,93414.54
2018-01-16T00:29:53.119Z,93415.57
2018-01-16T00:32:20.867Z,93408.41
2018-01-16T00:34:48.622Z,93402.95
2018-01-16T00:37:16.383Z,93400.30
2018-01-16T00:39:44.050Z,93403.70
2018-01-16T00:42:11.844Z,93403.62
2018-01-16T00:44:39.637Z,93405.38
2018-01-16T00:47:07.309Z,93401.14
2018-01-16T00:49:35.445Z,93410.70
2018-01-16T00:52:03.266Z,93408.30
2018-01-16T00:54:31.040Z,93406.63
2018-01-16T00:56:58.707Z,93403.77
2018-01-16T00:59:26.456Z,93387.70
2018-01-16T01:01:54.145Z,93386.23
2018-01-16T01:04:21.866Z,93394.39
2018-01-16T01:06:49.539Z,93388.22
2018-01-16T01:09:17.268Z,93378.48
2018-01-16T01:11:44.939Z,93371.00
2018-01-16T01:14:12.677Z,93371.71
2018-01-16T01:16:40.402Z,93368.84
2018-01-16T01:19:08.144Z,93377.91
2018-01-16T01:21:35.857Z,93372.39
2018-01-16T01:24:03.605Z,93367.94
2018-01-16T01:26:31.351Z,93375.77
2018-01-16T01:28:59.062Z,93360.66
2018-01-16T01:31:26.800Z,93355.78
2018-01-16T01:33:54.522Z,93346.52
2018-01-16T01:36:24.939Z,93344.48
2018-01-16T01:38:52.694Z,93337.64
2018-01-16T01:41:20.412Z,93341.95
2018-01-16T01:43:48.102Z,93327.23
2018-01-16T01:46:15.863Z,93329.45
2018-01-16T01:48:43.623Z,93333.09
2018-01-16T01:51:11.300Z,93335.22
2018-01-16T01:53:39.018Z,93325.73
2018-01-16T01:56:06.713Z,93329.06
2018-01-16T01:58:34.433Z,93328.10
2018-01-16T02:01:02.130Z,93324.50
2018-01-16T02:03:30.209Z,93320.38
2018-01-16T02:05:57.913Z,93322.14
2018-01-16T02:08:25.620Z,93321.40
2018-01-16T02:10:53.356Z,93318.65
2018-01-16T02:13:21.155Z,93319.36
2018-01-16T02:15:48.863Z,93318.00
2018-01-16T02:18:16.561Z,93321.17
2018-01-16T02:20:44.284Z,93320.21
2018-01-16T02:23:11.980Z,93321.51
2018-01-16T02:25:39.708Z,93329.79
2018-01-16T02:28:07.441Z,93325.88
2018-01-16T02:30:35.267Z,93321.80
2018-01-16T02:33:02.985Z,93318.66
2018-01-16T02:35:30.719Z,93318.61
2018-01-16T02:37:58.434Z,93316.33
2018-01-16T02:40:26.206Z,93308.47
2018-01-16T02:42:53.957Z,93301.22
2018-01-16T02:45:21.795Z,93303.67
2018-01-16T02:47:49.574Z,93294.15
2018-01-16T02:50:17.408Z,93273.67
2018-01-16T02:52:45.167Z,93275.33
2018-01-16T02:55:12.903Z,93286.69
2018-01-16T02:57:40.626Z,93271.09
2018-01-16T03:00:08.390Z,93273.45
2018-01-16T03:02:36.119Z,93268.63
2018-01-16T03:05:03.904Z,93257.36
2018-01-16T03:07:31.621Z,93261.47
2018-01-16T03:09:59.333Z,93256.77
2018-01-16T03:12:27.093Z,93264.19
2018-01-16T03:14:54.933Z,93248.36
2018-01-16T03:17:22.679Z,93240.70
2018-01-16T03:19:50.446Z,93237.00
2018-01-16T03:22:18.152Z,93237.66
2018-01-16T03:24:45.874Z,93229.16
2018-01-16T03:27:13.712Z,93229.47
2018-01-16T03:29:41.395Z,93218.86
2018-01-16T03:32:09.064Z,93215.92
2018-01-16T03:34:36.807Z,93206.47
2018-01-16T03:37:04.486Z,93218.03
2018-01-16T03:39:32.280Z,93223.64
2018-01-16T03:42:00.035Z,93220.96
2018-01-16T03:44:27.713Z,93222.30
2018-01-16T03:46:55.611Z,93230.31
2018-01-16T03:49:23.280Z,93225.78
2018-01-16T03:51:50.946Z,93229.55
2018-01-16T03:54:18.689Z,93209.48
2018-01-16T03:56:46.420Z,93205.86
2018-01-16T03:59:14.223Z,93200.82
2018-01-16T04:01:41.915Z,93199.20
2018-01-16T04:04:09.595Z,93198.30
2018-01-16T04:06:37.343Z,93203.10
2018-01-16T04:09:05.167Z,93188.64
2018-01-16T04:11:32.839Z,93181.63
2018-01-16T04:14:00.627Z,93178.63
2018-01-16T04:16:28.408Z,93164.05
2018-01-16T04:18:56.130Z,93163.87
2018-01-16T04:21:23.912Z,93160.20
2018-01-16T04:23:51.593Z,93156.89
2018-01-16T04:26:19.311Z,93159.74
2018-01-16T04:28:48.028Z,93165.17
2018-01-16T04:31:15.749Z,93163.28
2018-01-16T04:33:43.473Z,93173.77
2018-01-16T04:36:11.156Z,93147.58
2018-01-16T04:38:38.884Z,93164.92
2018-01-16T04:41:06.594Z,93159.55
2018-01-16T04:43:34.285Z,93156.20
2018-01-16T04:46:02.016Z,93151.08
2018-01-16T04:48:29.760Z,93134.41
2018-01-16T04:50:57.484Z,93137.22
2018-01-16T04:53:25.347Z,93125.52
2018-01-16T04:55:53.132Z,93121.10
2018-01-16T04:58:20.811Z,93132.43
2018-01-16T05:00:48.548Z,93124.05
2018-01-16T05:03:16.285Z,93130.24
2018-01-16T05:05:43.994Z,93128.73
2018-01-16T05:08:11.686Z,93134.69
2018-01-16T05:10:39.398Z,93120.97
2018-01-16T05:13:07.060Z,93116.39
2018-01-16T05:15:34.775Z,93111.86
2018-01-16T05:18:02.493Z,93111.38
2018-01-16T05:20:30.311Z,93100.72
2018-01-16T05:22:58.022Z,93106.48
2018-01-16T05:25:25.801Z,93098.05
2018-01-16T05:27:53.671Z,93079.91
2018-01-16T05:30:21.372Z,93076.97
2018-01-16T05:32:49.077Z,93074.82
2018-01-16T05:35:16.853Z,93081.67
2018-01-16T05:37:44.579Z,93081.41
2018-01-16T05:40:12.430Z,93065.19
2018-01-16T05:42:40.195Z,93067.70
2018-01-16T05:45:07.945Z,93083.69
2018-01-16T05:47:35.752Z,93061.42
2018-01-16T05:50:03.573Z,93075.77
2018-01-16T05:52:31.463Z,93071.49
2018-01-16T05:54:59.218Z,93053.52
2018-01-16T05:57:27.013Z,93069.20
2018-01-16T05:59:54.693Z,93073.73
2018-01-16T06:02:22.437Z,93084.30
2018-01-16T06:04:50.171Z,93081.50
2018-01-16T06:07:17.886Z,93075.83
2018-01-16T06:09:45.566Z,93068.98
2018-01-16T06:12:13.260Z,93073.64
2018-01-16T06:14:41.010Z,93067.84
2018-01-16T06:17:08.806Z,93056.69
2018-01-16T06:19:36.580Z,93055.84
2018-01-16T06:22:04.278Z,93046.81
2018-01-16T06:24:32.043Z,93035.74
2018-01-16T06:26:59.786Z,93032.30
2018-01-16T06:29:27.534Z,93041.05
2018-01-16T06:31:55.243Z,93031.64
2018-01-16T06:34:22.963Z,93050.63
2018-01-16T06:36:50.666Z,93051.95
2018-01-16T06:39:18.410Z,93060.97
2018-01-16T06:41:46.087Z,93064.61
2018-01-16T06:44:13.874Z,93067.92
2018-01-16T06:46:42.699Z,93073.32
2018-01-16T06:49:10.471Z,93070.85
2018-01-16T06:51:38.191Z,93075.00
2018-01-16T06:54:05.979Z,93072.08
2018-01-16T06:56:33.723Z,93077.67
2018-01-16T06:59:01.441Z,93076.28
2018-01-16T07:01:29.186Z,93073.33
2018-01-16T07:03:56.967Z,93071.52
2018-01-16T07:06:24.809Z,93068.88
2018-01-16T07:08:52.543Z,93065.04
2018-01-16T07:11:20.278Z,93060.87
2018-01-16T07:13:48.008Z,93050.02
2018-01-16T07:16:15.783Z,93042.25
2018-01-16T07:18:43.503Z,93032.80
2018-01-16T07:21:11.263Z,93030.14
2018-01-16T07:23:38.996Z,93025.64
2018-01-16T07:26:06.815Z,93015.70
2018-01-16T07:28:34.554Z,93005.27
2018-01-16T07:31:02.276Z,93008.59
2018-01-16T07:33:30.032Z,93010.15
2018-01-16T07:35:57.825Z,93001.75
2018-01-16T07:38:25.528Z,92995.38
2018-01-16T07:40:53.297Z,92982.94
2018-01-16T07:43:21.065Z,92967.31
2018-01-16T07:45:48.772Z,92974.95
2018-01-16T07:48:16.509Z,92979.51
2018-01-16T07:50:44.226Z,92990.10
2018-01-16T07:53:11.988Z,92974.74
2018-01-16T07:55:40.106Z,92981.64
2018-01-16T07:58:08.010Z,92981.40
2018-01-16T08:00:35.734Z,92988.02
2018-01-16T08:03:03.451Z,92994.79
2018-01-16T08:05:31.139Z,92987.86
2018-01-16T08:07:58.892Z,92985.73
2018-01-16T08:10:26.568Z,92989.77
2018-01-16T08:12:54.397Z,92982.16
2018-01-16T08:15:22.062Z,92973.34
2018-01-16T08:17:50.347Z,92962.23
2018-01-16T08:20:18.498Z,92963.58
2018-01-16T08:22:46.229Z,92964.91
2018-01-16T08:25:14.128Z,92961.05
2018-01-16T08:27:41.834Z,92962.03
2018-01-16T08:30:09.599Z,92960.03
2018-01-16T08:32:38.087Z,92945.14
2018-01-16T08:35:05.782Z,92946.31
2018-01-16T08:37:33.547Z,92936.07
2018-01-16T08:40:01.372Z,92930.20
2018-01-16T08:42:29.190Z,92921.49
2018-01-16T08:44:56.912Z,92920.84
2018-01-16T08:47:24.677Z,92906.88
2018-01-16T08:49:52.376Z,92903.57
2018-01-16T08:52:20.111Z,92916.02
2018-01-16T08:54:47.941Z,92911.89
2018-01-16T08:57:15.641Z,92906.66
2018-01-16T08:59:43.411Z,92889.86
2018-01-16T09:02:11.159Z,92885.80
2018-01-16T09:04:38.849Z,92896.44
2018-01-16T09:07:06.517Z,92886.77
2018-01-16T09:09:34.266Z,92892.67
2018-01-16T09:12:01.978Z,92907.75
2018-01-16T09:14:29.747Z,92892.38
2018-01-16T09:16:57.482Z,92897.91
2018-01-16T09:19:25.242Z,92902.57
2018-01-16T09:21:53.037Z,92897.80
2018-01-16T09:24:20.791Z,92901.05
2018-01-16T09:26:48.975Z,92893.56
2018-01-16T09:29:16.663Z,92891.42
2018-01-16T09:31:44.455Z,92895.52
2018-01-16T09:34:12.131Z,92886.09
2018-01-16T09:36:39.870Z,92896.23
2018-01-16T09:39:07.588Z,92898.81
2018-01-16T09:41:35.309Z,92891.67
2018-01-16T09:44:03.228Z,92892.65
2018-01-16T09:46:30.928Z,92891.85
2018-01-16T09:48:58.687Z,92881.53
2018-01-16T09:51:26.471Z,92882.07
2018-01-16T09:53:54.250Z,92874.49
2018-01-16T09:56:21.968Z,92867.99
2018-01-16T09:58:49.714Z,92852.27
2018-01-16T10:01:17.395Z,92850.21
2018-01-16T10:03:45.137Z,92831.63
2018-01-16T10:06:12.914Z,92844.16
2018-01-16T10:08:40.674Z,92835.67
2018-01-16T10:11:08.389Z,92839.38
2018-01-16T10:13:36.831Z,92823.24
2018-01-16T10:16:04.588Z,92810.78
2018-01-16T10:18:32.356Z,92811.17
2018-01-16T10:21:00.121Z,92800.65
2018-01-16T10:23:27.800Z,92806.06
2018-01-16T10:25:55.555Z,92817.23
2018-01-16T10:28:23.812Z,92824.86
2018-01-16T10:30:51.640Z,92819.59
2018-01-16T10:33:19.399Z,92810.08
2018-01-16T10:38:21.088Z,92818.61
2018-01-16T10:40:49.803Z,92798.26
2018-01-16T10:43:17.590Z,92788.59
2018-01-16T10:45:45.342Z,92791.75
2018-01-16T10:48:13.089Z,92788.41
2018-01-16T10:50:40.840Z,92808.23
2018-01-16T10:53:08.597Z,92807.44
2018-01-16T10:55:36.416Z,92822.95
2018-01-16T10:58:04.208Z,92832.25
2018-01-16T11:00:32.002Z,92829.16
2018-01-16T11:02:59.714Z,92827.28
2018-01-16T11:05:27.483Z,92846.41
2018-01-16T11:07:55.380Z,92843.23
2018-01-16T11:10:23.090Z,92835.50
2018-01-16T11:12:50.794Z,92806.43
2018-01-16T11:15:18.581Z,92814.52
2018-01-16T11:17:46.330Z,92802.94
2018-01-16T11:20:14.082Z,92789.39
2018-01-16T11:22:41.883Z,92779.34
2018-01-16T11:25:09.638Z,92779.51
2018-01-16T11:27:37.418Z,92769.26
2018-01-16T11:30:05.183Z,92756.65
2018-01-16T11:32:33.006Z,92748.38
2018-01-16T11:35:00.821Z,92745.32
2018-01-16T11:37:28.491Z,92744.37
2018-01-16T11:39:56.243Z,92734.55
2018-01-16T11:42:23.954Z,92706.61
2018-01-16T11:44:51.726Z,92698.02
2018-01-16T11:47:19.478Z,92685.75
2018-01-16T11:49:47.504Z,92680.12
2018-01-16T11:52:15.225Z,92673.42
2018-01-16T11:54:42.968Z,92662.86
2018-01-16T11:57:10.757Z,92666.73
2018-01-16T11:59:39.393Z,92668.69
2018-01-16T12:02:07.185Z,92666.02
2018-01-16T12:04:34.963Z,92662.55
2018-01-16T12:07:02.746Z,92662.53
2018-01-16T12:09:30.571Z,92678.38
2018-01-16T12:11:58.431Z,92700.75
2018-01-16T12:14:26.172Z,92696.89
2018-01-16T12:16:53.949Z,92699.74
2018-01-16T12:19:21.736Z,92686.37
2018-01-16T12:21:50.371Z,92711.19
2018-01-16T12:24:18.266Z,92718.87
2018-01-16T12:26:46.031Z,92724.33
2018-01-16T12:29:13.803Z,92726.86
2018-01-16T12:31:42.422Z,92729.81
2018-01-16T12:34:10.198Z,92723.02
2018-01-16T12:36:37.901Z,92724.87
2018-01-16T12:39:05.711Z,92720.59
2018-01-16T12:41:33.406Z,92722.67
2018-01-16T12:44:01.172Z,92724.25
2018-01-16T12:46:28.883Z,92711.75
2018-01-16T12:48:56.601Z,92699.13
2018-01-16T12:51:24.384Z,92683.47
2018-01-16T12:53:52.184Z,92685.79
2018-01-16T12:56:19.966Z,92688.53
2018-01-16T12:58:47.667Z,92703.60
2018-01-16T13:01:15.388Z,92703.91
2018-01-16T13:03:43.368Z,92706.96
2018-01-16T13:06:11.149Z,92694.69
2018-01-16T13:08:38.890Z,92702.68
2018-01-16T13:11:07.010Z,92679.06
2018-01-16T13:13:34.768Z,92683.16
2018-01-16T13:16:02.515Z,92690.05
2018-01-16T13:18:30.251Z,92673.36
2018-01-16T13:20:58.009Z,92669.23
2018-01-16T13:23:25.726Z,92674.15
2018-01-16T13:25:53.450Z,92665.73
2018-01-16T13:28:21.205Z,92650.59
2018-01-16T13:30:49.077Z,92653.53
2018-01-16T13:33:16.772Z,92654.02
2018-01-16T13:35:44.475Z,92644.11
2018-01-16T13:38:12.250Z,92632.94
2018-01-16T13:40:39.986Z,92623.09
2018-01-16T13:43:07.807Z,92634.12
2018-01-16T13:45:35.657Z,92628.02
2018-01-16T13:48:03.405Z,92632.70
2018-01-16T13:50:31.203Z,92636.00
2018-01-16T13:52:58.993Z,92640.81
2018-01-16T13:55:26.767Z,92647.58
2018-01-16T13:57:54.623Z,92632.27
2018-01-16T14:00:22.346Z,92639.95
2018-01-16T14:02:50.096Z,92622.96
2018-01-16T14:05:17.861Z,92632.20
2018-01-16T14:07:45.714Z,92638.86
2018-01-16T14:10:13.426Z,92628.41
2018-01-16T14:12:41.176Z,92627.47
2018-01-16T14:15:08.957Z,92637.19
2018-01-16T14:17:36.767Z,92626.31
2018-01-16T14:20:04.601Z,92623.70
2018-01-16T14:22:32.391Z,92607.23
2018-01-16T14:25:00.165Z,92597.76
2018-01-16T14:27:27.868Z,92587.09
2018-01-16T14:29:55.633Z,92588.33
2018-01-16T14:32:23.423Z,92581.05
2018-01-16T14:34:52.212Z,92578.65
2018-01-16T14:37:20.012Z,92576.02
2018-01-16T14:39:47.767Z,92563.41
2018-01-16T14:42:15.507Z,92557.61
2018-01-16T14:44:43.337Z,92547.58
2018-01-16T14:47:11.338Z,92539.22
2018-01-16T14:49:39.791Z,92547.59
2018-01-16T14:52:08.714Z,92521.38
2018-01-16T14:54:37.764Z,92508.09
2018-01-16T14:57:06.437Z,92533.33
2018-01-16T14:59:34.293Z,92528.11
2018-01-16T15:02:01.993Z,92530.09
2018-01-16T15:04:29.826Z,92535.98
2018-01-16T15:06:57.532Z,92541.88
2018-01-16T15:09:25.320Z,92542.58
2018-01-16T15:11:53.032Z,92539.80
2018-01-16T15:14:20.870Z,92544.91
2018-01-16T15:16:48.618Z,92553.67
2018-01-16T15:19:16.366Z,92548.19
2018-01-16T15:21:44.131Z,92545.45
2018-01-16T15:24:11.893Z,92559.41
2018-01-16T15:26:39.646Z,92552.00
2018-01-16T15:29:07.483Z,92551.45
2018-01-16T15:31:35.449Z,92543.78
2018-01-16T15:34:03.308Z,92542.31
2018-01-16T15:36:31.076Z,92534.30
2018-01-16T15:38:58.797Z,92538.03
2018-01-16T15:41:26.584Z,92529.66
2018-01-16T15:43:55.815Z,92521.58
2018-01-16T15:46:23.511Z,92515.19
2018-01-16T15:48:51.206Z,92529.65
2018-01-16T15:51:19.001Z,92525.50
2018-01-16T15:53:46.727Z,92525.34
2018-01-16T15:56:14.505Z,92503.91
2018-01-16T15:58:42.353Z,92491.77
2018-01-16T16:01:10.333Z,92481.55
2018-01-16T16:03:38.213Z,92476.11
2018-01-16T16:06:06.098Z,92486.48
2018-01-16T16:08:34.065Z,92474.00
2018-01-16T16:11:01.800Z,92469.05
2018-01-16T16:13:29.643Z,92464.86
2018-01-16T16:15:58.226Z,92477.34
2018-01-16T16:18:26.089Z,92470.70
2018-01-16T16:20:53.857Z,92460.33
2018-01-16T16:23:21.651Z,92449.50
2018-01-16T16:25:50.505Z,92443.66
2018-01-16T16:28:18.298Z,92458.91
2018-01-16T16:30:46.238Z,92455.87
2018-01-16T16:33:14.017Z,92469.05
2018-01-16T16:35:42.078Z,92488.84
2018-01-16T16:38:09.854Z,92496.56
2018-01-16T16:40:37.670Z,92509.97
2018-01-16T16:43:05.463Z,92517.98
2018-01-16T16:45:33.280Z,92527.10
2018-01-16T16:48:01.159Z,92530.88
2018-01-16T16:50:28.936Z,92546.98
2018-01-16T16:52:57.859Z,92565.24
2018-01-16T16:55:25.686Z,92574.98
2018-01-16T16:57:53.548Z,92591.93
2018-01-16T17:00:21.354Z,92598.31
2018-01-16T17:02:49.179Z,92615.00
2018-01-16T17:05:16.975Z,92621.89
2018-01-16T17:07:44.790Z,92631.63
2018-01-16T17:10:12.549Z,92631.43
2018-01-16T17:12:40.468Z,92633.30
2018-01-16T17:15:08.254Z,92628.58
2018-01-16T17:17:36.101Z,92640.28
2018-01-16T17:20:03.813Z,92650.12
2018-01-16T17:22:31.498Z,92665.14
2018-01-16T17:24:59.313Z,92656.08
2018-01-16T17:27:27.004Z,92670.84
2018-01-16T17:29:54.836Z,92666.12
2018-01-16T17:32:22.629Z,92665.42
2018-01-16T17:34:50.479Z,92668.09
2018-01-16T17:37:18.225Z,92660.21
2018-01-16T17:39:46.069Z,92672.48
2018-01-16T17:42:14.648Z,92666.22
2018-01-16T17:44:42.455Z,92673.45
2018-01-16T17:47:10.232Z,92679.26
2018-01-16T17:49:38.018Z,92697.67
2018-01-16T17:52:05.827Z,92676.41
2018-01-16T17:54:33.544Z,92630.69
2018-01-16T17:57:01.454Z,92614.78
2018-01-16T17:59:29.386Z,92629.75
2018-01-16T18:01:57.234Z,92632.31
2018-01-16T18:04:25.143Z,92646.19
2018-01-16T18:06:53.253Z,92654.84
2018-01-16T18:09:21.210Z,92645.59
2018-01-16T18:11:49.127Z,92666.82
2018-01-16T18:14:17.086Z,92656.22
2018-01-16T18:16:44.791Z,92647.33
2018-01-16T18:19:12.620Z,92653.33
2018-01-16T18:21:40.630Z,92661.87
2018-01-16T18:24:08.559Z,92649.56
2018-01-16T18:26:36.353Z,92650.02
2018-01-16T18:29:04.082Z,92647.06
2018-01-16T18:31:32.087Z,92628.36
2018-01-16T18:33:59.944Z,92649.71
2018-01-16T18:36:28.295Z,92656.47
2018-01-16T18:38:56.104Z,92655.05
2018-01-16T18:41:26.366Z,92660.45
2018-01-16T18:43:57.994Z,92650.66
2018-01-16T18:46:27.057Z,92648.70
2018-01-16T18:48:55.517Z,92646.91
2018-01-16T18:51:23.383Z,92656.30
2018-01-16T18:53:52.260Z,92653.33
2018-01-16T18:56:19.992Z,92663.91
2018-01-16T18:58:47.845Z,92665.75
2018-01-16T19:01:15.703Z,92672.17
2018-01-16T19:03:43.840Z,92677.93
2018-01-16T19:06:11.713Z,92674.97
2018-01-16T19:08:39.584Z,92665.53
2018-01-16T19:11:07.479Z,92648.99
2018-01-16T19:13:35.342Z,92656.07
2018-01-16T19:16:03.462Z,92650.27
2018-01-16T19:18:32.728Z,92653.22
2018-01-16T19:21:01.524Z,92664.25
2018-01-16T19:23:29.807Z,92676.84
2018-01-16T19:26:01.400Z,92683.55
2018-01-16T19:28:36.140Z,92669.47
2018-01-16T19:31:04.601Z,92672.92
2018-01-16T19:33:32.359Z,92677.16
2018-01-16T19:36:01.534Z,92674.39
2018-01-16T19:38:29.373Z,92682.95
2018-01-16T19:40:58.958Z,92660.75
2018-01-16T19:43:29.398Z,92654.12
2018-01-16T19:45:59.837Z,92670.25
2018-01-16T19:48:27.679Z,92670.46
2018-01-16T19:50:58.869Z,92650.77
2018-01-16T19:53:26.665Z,92638.25
2018-01-16T19:55:54.777Z,92633.73
2018-01-16T19:58:22.692Z,92643.88
2018-01-16T20:00:52.513Z,92654.80
2018-01-16T20:03:20.655Z,92666.02
2018-01-16T20:05:50.570Z,92680.41
2018-01-16T20:08:22.113Z,92692.70
2018-01-16T20:10:49.880Z,92696.84
2018-01-16T20:13:18.150Z,92684.92
2018-01-16T20:15:46.130Z,92686.70
2018-01-16T20:18:14.137Z,92684.03
2018-01-16T20:20:41.895Z,92684.43
2018-01-16T20:23:10.773Z,92683.44
2018-01-16T20:25:38.550Z,92677.34
2018-01-16T20:28:06.409Z,92687.58
2018-01-16T20:30:34.313Z,92688.27
2018-01-16T20:33:02.346Z,92683.14
2018-01-16T20:35:30.511Z,92680.84
2018-01-16T20:37:58.380Z,92692.16
2018-01-16T20:40:27.451Z,92679.17
2018-01-16T20:42:56.893Z,92668.42
2018-01-16T20:45:24.781Z,92664.69
2018-01-16T20:47:52.594Z,92675.84
2018-01-16T20:50:20.858Z,92689.14
2018-01-16T20:52:48.777Z,92686.19
2018-01-16T20:55:18.900Z,92682.35
2018-01-16T20:57:47.674Z,92670.41
2018-01-16T21:00:15.557Z,92656.95
2018-01-16T21:02:44.665Z,92645.28
2018-01-16T21:05:16.131Z,92622.05
2018-01-16T21:07:44.182Z,92622.44
2018-01-16T21:10:11.930Z,92605.39
2018-01-16T21:12:39.637Z,92599.80
2018-01-16T21:15:07.384Z,92590.25
2018-01-16T21:17:35.127Z,92563.31
2018-01-16T21:20:02.970Z,92541.84
2018-01-16T21:22:31.324Z,92529.70
2018-01-16T21:25:00.870Z,92501.27
2018-01-16T21:27:28.615Z,92496.32
2018-01-16T21:29:56.369Z,92502.30
2018-01-16T21:32:24.098Z,92507.63
2018-01-16T21:34:51.879Z,92499.81
2018-01-16T21:37:19.752Z,92510.97
2018-01-16T21:39:47.416Z,92508.72
2018-01-16T21:42:15.076Z,92526.80
2018-01-16T21:44:42.842Z,92520.19
2018-01-16T21:47:10.606Z,92514.19
2018-01-16T21:49:38.396Z,92512.77
2018-01-16T21:52:06.094Z,92503.76
2018-01-16T21:54:33.846Z,92498.84
2018-01-16T21:57:01.570Z,92489.78
2018-01-16T21:59:29.444Z,92491.74
2018-01-16T22:01:57.134Z,92483.27
2018-01-16T22:04:24.918Z,92482.78
2018-01-16T22:06:52.696Z,92480.95
2018-01-16T22:09:20.417Z,92475.55
2018-01-16T22:11:48.176Z,92459.98
2018-01-16T22:14:15.944Z,92470.72
2018-01-16T22:16:43.652Z,92468.78
2018-01-16T22:19:11.399Z,92466.05
2018-01-16T22:21:39.056Z,92464.06
2018-01-16T22:24:06.769Z,92453.63
2018-01-16T22:26:34.572Z,92452.47
2018-01-16T22:29:02.322Z,92447.77
2018-01-16T22:31:30.086Z,92444.77
2018-01-16T22:33:58.718Z,92448.80
2018-01-16T22:36:26.449Z,92443.74
2018-01-16T22:38:54.204Z,92444.89
2018-01-16T22:41:21.922Z,92435.95
2018-01-16T22:43:49.712Z,92445.49
2018-01-16T22:46:17.477Z,92427.45
2018-01-16T22:48:45.186Z,92443.62
2018-01-16T22:51:12.972Z,92437.51
2018-01-16T22:53:40.771Z,92436.77
2018-01-16T22:56:08.611Z,92452.85
2018-01-16T22:58:36.381Z,92458.52
2018-01-16T23:01:04.110Z,92463.61
2018-01-16T23:03:31.896Z,92463.48
2018-01-16T23:05:59.652Z,92485.84
2018-01-16T23:08:27.438Z,92497.55
2018-01-16T23:10:55.321Z,92482.19
2018-01-16T23:13:23.108Z,92478.09
2018-01-16T23:15:50.800Z,92479.57
2018-01-16T23:18:18.516Z,92496.09
2018-01-16T23:20:46.285Z,92500.02
2018-01-16T23:23:14.010Z,92482.88
2018-01-16T23:25:41.680Z,92472.75
2018-01-16T23:28:09.417Z,92477.73
2018-01-16T23:30:37.078Z,92474.13
2018-01-16T23:33:04.797Z,92456.63
2018-01-16T23:35:32.460Z,92447.17
2018-01-16T23:38:00.125Z,92446.59
2018-01-16T23:40:27.866Z,92441.72
2018-01-16T23:42:55.619Z,92432.52
2018-01-16T23:45:23.295Z,92427.17
2018-01-16T23:47:51.029Z,92424.23
2018-01-16T23:50:18.721Z,92426.41
2018-01-16T23:52:46.588Z,92426.23
2018-01-16T23:55:14.279Z,92430.17
2018-01-16T23:57:41.939Z,92428.48
